Time;durP1;ratioP1;P1;durP2;ratioP2;P2;SDS_P1;SDS_P2;PMS_P1;PMS_P2;Temp;Humidity;BMP_temperature;BMP_pressure;BME280_temperature;BME280_humidity;BME280_pressure;Samples;Min_cycle;Max_cycle;Signal;HPM_P1;HPM_P2
2022/01/19 00:01:00;;;;;;;8.05;5.70;;;;;;;;;;5025628;28;20025;-78
2022/01/19 00:03:25;;;;;;;7.72;5.15;;;;;;;;;;5022488;28;20782;-78
2022/01/19 00:05:51;;;;;;;8.43;5.43;;;;;;;;;;5027652;28;20030;-77
2022/01/19 00:08:20;;;;;;;9.07;5.93;;;;;;;;;;5028551;28;20061;-78
2022/01/19 00:10:45;;;;;;;7.70;5.55;;;;;;;;;;5028833;28;20587;-78
2022/01/19 00:13:11;;;;;;;7.88;5.93;;;;;;;;;;5028045;28;20025;-77
2022/01/19 00:15:37;;;;;;;7.93;5.88;;;;;;;;;;5024249;28;20034;-76
2022/01/19 00:18:03;;;;;;;7.75;5.80;;;;;;;;;;5029501;28;20473;-77
2022/01/19 00:20:31;;;;;;;7.30;5.45;;;;;;;;;;5028676;28;20116;-77
2022/01/19 00:22:57;;;;;;;8.82;6.28;;;;;;;;;;5028562;28;20108;-77
2022/01/19 00:25:23;;;;;;;9.20;6.78;;;;;;;;;;5028345;28;20044;-77
2022/01/19 00:27:48;;;;;;;9.77;6.07;;;;;;;;;;5028908;28;20029;-77
2022/01/19 00:30:14;;;;;;;11.25;6.40;;;;;;;;;;5033955;28;20087;-77
2022/01/19 00:32:40;;;;;;;8.45;5.95;;;;;;;;;;5033321;28;20017;-77
2022/01/19 00:35:08;;;;;;;7.45;5.70;;;;;;;;;;5031927;28;20030;-77
2022/01/19 00:37:33;;;;;;;8.00;5.22;;;;;;;;;;5027514;28;20091;-77
2022/01/19 00:39:59;;;;;;;10.32;5.57;;;;;;;;;;5029459;28;20503;-77
2022/01/19 00:42:24;;;;;;;8.68;5.85;;;;;;;;;;5032433;28;20079;-78
2022/01/19 00:44:49;;;;;;;8.45;5.35;;;;;;;;;;5031115;28;20032;-77
2022/01/19 00:47:16;;;;;;;7.85;5.15;;;;;;;;;;5029845;28;20083;-77
2022/01/19 00:49:43;;;;;;;8.57;5.15;;;;;;;;;;5030906;28;20033;-77
2022/01/19 00:52:09;;;;;;;8.60;5.57;;;;;;;;;;5028368;28;20026;-77
2022/01/19 00:54:35;;;;;;;11.27;6.00;;;;;;;;;;5030140;28;20079;-78
2022/01/19 00:57:00;;;;;;;7.65;5.60;;;;;;;;;;5031715;28;20021;-77
2022/01/19 00:59:26;;;;;;;7.32;5.35;;;;;;;;;;5031102;28;20480;-78
2022/01/19 01:01:51;;;;;;;6.65;5.15;;;;;;;;;;5029555;28;20060;-77
2022/01/19 01:04:16;;;;;;;7.25;5.20;;;;;;;;;;5031447;28;20029;-77
2022/01/19 01:06:42;;;;;;;8.85;5.80;;;;;;;;;;5029810;28;20040;-77
2022/01/19 01:09:07;;;;;;;10.23;5.32;;;;;;;;;;5030755;28;20034;-78
2022/01/19 01:11:36;;;;;;;8.43;5.35;;;;;;;;;;5032020;28;20577;-77
2022/01/19 01:16:38;;;;;;;9.77;6.70;;;;;;;;;;5030456;28;20060;-77
2022/01/19 01:19:08;;;;;;;8.52;6.15;;;;;;;;;;5029250;28;20032;-77
2022/01/19 01:21:33;;;;;;;10.23;6.10;;;;;;;;;;5031819;28;20056;-77
2022/01/19 01:23:59;;;;;;;8.77;5.72;;;;;;;;;;5030397;28;20428;-77
2022/01/19 01:26:24;;;;;;;10.25;6.38;;;;;;;;;;5030704;28;20155;-77
2022/01/19 01:28:50;;;;;;;10.40;6.40;;;;;;;;;;5031146;28;20052;-77
2022/01/19 01:31:15;;;;;;;9.82;6.10;;;;;;;;;;5030461;28;20104;-77
2022/01/19 01:33:41;;;;;;;9.50;5.78;;;;;;;;;;5029953;28;20021;-75
2022/01/19 01:36:07;;;;;;;6.22;4.43;;;;;;;;;;5030404;28;20466;-75
2022/01/19 01:38:32;;;;;;;4.22;3.20;;;;;;;;;;5028904;28;20037;-74
2022/01/19 01:40:58;;;;;;;3.97;3.08;;;;;;;;;;5030131;28;20029;-77
2022/01/19 01:43:24;;;;;;;4.05;3.13;;;;;;;;;;5029885;28;20026;-77
2022/01/19 01:45:54;;;;;;;5.78;3.20;;;;;;;;;;5029019;28;20036;-74
2022/01/19 01:48:22;;;;;;;4.25;3.30;;;;;;;;;;5030684;28;20029;-75
2022/01/19 01:53:35;;;;;;;8.30;5.50;;;;;;;;;;5023606;28;20375;-77
2022/01/19 01:56:10;;;;;;;9.25;6.15;;;;;;;;;;5028708;28;20092;-77
2022/01/19 01:58:41;;;;;;;12.18;6.93;;;;;;;;;;5031303;28;20033;-77
2022/01/19 02:01:08;;;;;;;9.75;6.28;;;;;;;;;;5029548;28;20029;-77
2022/01/19 02:03:38;;;;;;;9.95;6.80;;;;;;;;;;5029634;28;20476;-78
2022/01/19 02:08:52;;;;;;;8.40;5.82;;;;;;;;;;5029459;28;20033;-77
2022/01/19 02:16:42;;;;;;;8.23;5.05;;;;;;;;;;5029784;28;20506;-77
2022/01/19 02:22:00;;;;;;;8.30;5.40;;;;;;;;;;5030018;28;20120;-77
2022/01/19 02:24:41;;;;;;;7.35;4.97;;;;;;;;;;5029196;28;20510;-77
2022/01/19 02:30:55;;;;;;;11.05;6.43;;;;;;;;;;4992461;28;20140;-77
2022/01/19 02:40:58;;;;;;;7.63;4.80;;;;;;;;;;5028738;28;20039;-77
2022/01/19 02:43:27;;;;;;;5.75;4.20;;;;;;;;;;5027564;28;20475;-76
2022/01/19 02:51:20;;;;;;;5.43;4.25;;;;;;;;;;5029160;28;20041;-76
2022/01/19 02:53:46;;;;;;;5.32;4.03;;;;;;;;;;5029025;28;20025;-76
2022/01/19 02:56:20;;;;;;;5.70;4.22;;;;;;;;;;5028064;28;20253;-77
2022/01/19 02:58:59;;;;;;;4.97;3.67;;;;;;;;;;5029857;28;20067;-76
2022/01/19 03:09:21;;;;;;;7.90;4.50;;;;;;;;;;5030261;28;20028;-77
2022/01/19 03:11:47;;;;;;;8.95;4.97;;;;;;;;;;5028695;28;20026;-76
2022/01/19 03:14:12;;;;;;;8.48;5.13;;;;;;;;;;5028868;28;20041;-77
2022/01/19 03:16:38;;;;;;;7.80;4.57;;;;;;;;;;5027563;28;20029;-77
2022/01/19 03:19:03;;;;;;;4.88;4.13;;;;;;;;;;5026782;28;20026;-76
2022/01/19 03:21:29;;;;;;;4.95;3.53;;;;;;;;;;5028635;28;20049;-77
2022/01/19 03:23:54;;;;;;;5.32;3.72;;;;;;;;;;5029747;28;20029;-76
2022/01/19 03:26:20;;;;;;;7.30;4.35;;;;;;;;;;5028025;28;20076;-77
2022/01/19 03:28:45;;;;;;;6.90;4.65;;;;;;;;;;5028111;28;20043;-76
2022/01/19 03:31:10;;;;;;;6.85;5.05;;;;;;;;;;5028545;28;20048;-77
2022/01/19 03:33:36;;;;;;;10.32;5.38;;;;;;;;;;5028932;28;20113;-76
2022/01/19 03:36:01;;;;;;;8.68;5.70;;;;;;;;;;5027419;28;20025;-76
2022/01/19 03:38:27;;;;;;;7.88;5.43;;;;;;;;;;5028530;28;20038;-76
2022/01/19 03:40:52;;;;;;;8.98;4.78;;;;;;;;;;5028148;28;20041;-77
2022/01/19 03:43:18;;;;;;;8.48;5.68;;;;;;;;;;5029105;28;20033;-76
2022/01/19 03:45:51;;;;;;;8.55;5.10;;;;;;;;;;5028496;28;20439;-77
2022/01/19 03:48:53;;;;;;;;;;;;;;;;;;5027835;28;20545;-76
2022/01/19 03:51:09;;;;;;;8.00;4.93;;;;;;;;;;5025932;28;19913;-77
2022/01/19 03:53:35;;;;;;;6.35;4.78;;;;;;;;;;5026181;28;20320;-76
2022/01/19 03:56:01;;;;;;;7.45;4.75;;;;;;;;;;5026940;28;20048;-77
2022/01/19 03:58:27;;;;;;;6.25;4.43;;;;;;;;;;5028006;28;20475;-76
2022/01/19 04:00:55;;;;;;;6.85;5.03;;;;;;;;;;5027431;28;20064;-77
2022/01/19 04:03:30;;;;;;;9.70;5.20;;;;;;;;;;5026877;28;20036;-77
2022/01/19 04:06:01;;;;;;;7.85;4.72;;;;;;;;;;5029577;28;20022;-77
2022/01/19 04:08:26;;;;;;;6.22;4.72;;;;;;;;;;5032278;28;20472;-77
2022/01/19 04:10:53;;;;;;;6.68;4.43;;;;;;;;;;5029972;28;20036;-77
2022/01/19 04:15:50;;;;;;;6.32;4.68;;;;;;;;;;5023283;28;20033;-77
2022/01/19 04:18:16;;;;;;;7.03;4.65;;;;;;;;;;5023751;28;20045;-77
2022/01/19 04:20:43;;;;;;;6.85;4.90;;;;;;;;;;5030172;28;20028;-77
2022/01/19 04:23:09;;;;;;;6.88;4.25;;;;;;;;;;5030935;28;20386;-77
2022/01/19 04:25:34;;;;;;;7.10;4.05;;;;;;;;;;5030677;28;20108;-77
2022/01/19 04:28:06;;;;;;;6.20;3.88;;;;;;;;;;5031318;28;20033;-78
2022/01/19 04:30:31;;;;;;;6.35;4.20;;;;;;;;;;5030521;28;20472;-77
2022/01/19 04:35:28;;;;;;;8.48;6.00;;;;;;;;;;5030755;28;20419;-76
2022/01/19 04:38:21;;;;;;;6.75;4.70;;;;;;;;;;5029943;28;20029;-77
2022/01/19 04:54:37;;;;;;;7.53;4.97;;;;;;;;;;4995458;28;1044166;-77
2022/01/19 05:01:39;;;;;;;7.65;4.25;;;;;;;;;;5030902;28;20048;-77
2022/01/19 05:03:12;;;;;;;6.75;4.70;;;;;;;;;;5030559;28;20212;-77
2022/01/19 05:05:49;;;;;;;7.35;4.78;;;;;;;;;;5030173;28;20029;-77
2022/01/19 05:08:33;;;;;;;9.02;5.85;;;;;;;;;;5030378;28;20022;-77
2022/01/19 05:13:51;;;;;;;36.97;16.75;;;;;;;;;;5031833;28;20043;-77
2022/01/19 05:16:16;;;;;;;30.42;15.23;;;;;;;;;;5030467;28;20065;-76
2022/01/19 05:18:41;;;;;;;26.73;11.88;;;;;;;;;;5029480;28;20057;-76
2022/01/19 05:21:07;;;;;;;20.60;11.48;;;;;;;;;;5031169;28;20029;-77
2022/01/19 05:23:32;;;;;;;18.75;9.38;;;;;;;;;;5030459;28;20268;-76
2022/01/19 05:25:57;;;;;;;14.88;7.15;;;;;;;;;;5028960;28;20025;-76
2022/01/19 05:28:23;;;;;;;21.35;10.35;;;;;;;;;;5030171;28;20029;-76
2022/01/19 05:30:49;;;;;;;29.60;11.30;;;;;;;;;;5030220;28;20483;-75
2022/01/19 05:33:14;;;;;;;21.00;9.00;;;;;;;;;;5029770;28;20079;-76
2022/01/19 05:35:40;;;;;;;22.70;9.70;;;;;;;;;;5031062;28;20427;-76
2022/01/19 05:38:05;;;;;;;19.65;8.75;;;;;;;;;;5030669;28;20033;-76
2022/01/19 05:40:30;;;;;;;15.60;8.18;;;;;;;;;;5030784;28;20045;-75
2022/01/19 05:42:56;;;;;;;19.83;8.82;;;;;;;;;;5029876;28;20034;-76
2022/01/19 05:45:21;;;;;;;12.38;6.65;;;;;;;;;;5028940;28;20482;-75
2022/01/19 05:47:48;;;;;;;14.38;7.43;;;;;;;;;;5029450;28;20124;-77
2022/01/19 05:50:13;;;;;;;13.35;6.93;;;;;;;;;;5030856;28;20525;-76
2022/01/19 05:52:39;;;;;;;10.80;6.22;;;;;;;;;;5030001;28;20034;-76
2022/01/19 05:55:04;;;;;;;11.50;5.80;;;;;;;;;;5028714;28;20386;-76
2022/01/19 05:57:31;;;;;;;14.50;8.50;;;;;;;;;;5030856;28;20032;-77
2022/01/19 05:59:56;;;;;;;14.77;8.35;;;;;;;;;;5030922;28;20176;-77
2022/01/19 06:02:22;;;;;;;15.18;7.75;;;;;;;;;;5030420;28;20502;-77
2022/01/19 06:04:47;;;;;;;17.55;9.18;;;;;;;;;;5029747;28;20388;-77
2022/01/19 06:07:13;;;;;;;14.05;7.72;;;;;;;;;;5030416;28;20053;-76
2022/01/19 06:12:10;;;;;;;9.85;6.65;;;;;;;;;;5050327;28;20037;-76
2022/01/19 06:14:37;;;;;;;9.23;6.55;;;;;;;;;;5040057;28;20116;-78
2022/01/19 06:17:06;;;;;;;10.05;6.72;;;;;;;;;;5029853;28;20037;-77
2022/01/19 06:19:31;;;;;;;11.70;7.57;;;;;;;;;;5030726;28;20063;-77
2022/01/19 06:21:56;;;;;;;11.57;6.90;;;;;;;;;;5030130;28;20545;-77
2022/01/19 06:24:22;;;;;;;15.07;6.90;;;;;;;;;;5030378;28;20036;-77
2022/01/19 06:26:47;;;;;;;15.88;7.57;;;;;;;;;;5032329;28;20239;-77
2022/01/19 06:29:13;;;;;;;13.20;7.28;;;;;;;;;;5032739;28;20037;-77
2022/01/19 06:31:38;;;;;;;14.05;7.80;;;;;;;;;;5030385;28;20040;-77
2022/01/19 06:34:04;;;;;;;22.52;15.48;;;;;;;;;;5029907;28;20108;-78
2022/01/19 06:36:29;;;;;;;18.10;9.52;;;;;;;;;;5030292;28;20061;-76
2022/01/19 06:38:54;;;;;;;20.80;10.02;;;;;;;;;;5029808;28;20483;-77
2022/01/19 06:41:19;;;;;;;22.23;10.43;;;;;;;;;;5029990;28;20025;-77
2022/01/19 06:43:45;;;;;;;19.73;11.02;;;;;;;;;;5031901;28;20032;-77
2022/01/19 06:46:10;;;;;;;12.13;7.20;;;;;;;;;;5050261;28;20032;-77
2022/01/19 06:48:36;;;;;;;10.57;6.93;;;;;;;;;;5049806;28;20095;-77
2022/01/19 06:51:02;;;;;;;8.15;5.18;;;;;;;;;;5044954;28;20035;-77
2022/01/19 06:53:27;;;;;;;8.18;5.18;;;;;;;;;;5029149;28;20546;-77
2022/01/19 06:55:57;;;;;;;11.60;5.82;;;;;;;;;;5030494;28;20086;-77
2022/01/19 06:58:23;;;;;;;10.25;6.45;;;;;;;;;;5017719;28;20033;-77
2022/01/19 07:00:49;;;;;;;9.75;5.30;;;;;;;;;;5024448;28;20037;-77
2022/01/19 07:03:14;;;;;;;7.25;5.57;;;;;;;;;;5025269;28;20025;-75
2022/01/19 07:05:39;;;;;;;8.98;5.70;;;;;;;;;;5020302;28;20021;-77
2022/01/19 07:08:05;;;;;;;7.82;5.45;;;;;;;;;;5022815;28;20052;-76
2022/01/19 07:10:31;;;;;;;8.00;5.40;;;;;;;;;;5023903;28;20025;-76
2022/01/19 07:12:58;;;;;;;8.88;5.53;;;;;;;;;;5024463;28;20017;-77
2022/01/19 07:15:24;;;;;;;9.13;5.78;;;;;;;;;;5024451;28;20026;-77
2022/01/19 07:17:49;;;;;;;7.10;5.20;;;;;;;;;;5024087;28;20090;-77
2022/01/19 07:20:15;;;;;;;7.75;4.22;;;;;;;;;;5026217;28;20029;-77
2022/01/19 07:22:41;;;;;;;5.38;4.10;;;;;;;;;;5027623;28;20021;-77
2022/01/19 07:25:08;;;;;;;5.68;4.22;;;;;;;;;;5022854;28;20471;-77
2022/01/19 07:27:33;;;;;;;5.03;4.07;;;;;;;;;;5021279;28;20068;-77
2022/01/19 07:29:58;;;;;;;10.50;6.80;;;;;;;;;;5026430;28;20436;-77
2022/01/19 07:32:29;;;;;;;15.93;8.60;;;;;;;;;;5027152;28;20041;-77
2022/01/19 07:34:54;;;;;;;16.13;9.07;;;;;;;;;;5026019;28;20082;-77
2022/01/19 07:37:19;;;;;;;12.35;7.55;;;;;;;;;;5028804;28;20563;-77
2022/01/19 07:39:44;;;;;;;15.73;8.25;;;;;;;;;;5024171;28;20033;-77
2022/01/19 07:42:10;;;;;;;14.13;8.32;;;;;;;;;;5019274;28;20025;-77
2022/01/19 07:44:35;;;;;;;12.85;7.63;;;;;;;;;;5026936;28;20167;-77
2022/01/19 07:47:00;;;;;;;13.02;7.35;;;;;;;;;;5029142;28;20032;-77
2022/01/19 07:49:26;;;;;;;13.55;7.45;;;;;;;;;;5025590;28;20026;-77
2022/01/19 07:51:51;;;;;;;20.80;11.90;;;;;;;;;;5031823;28;20033;-77
2022/01/19 07:54:16;;;;;;;30.95;19.63;;;;;;;;;;5038451;28;20102;-77
2022/01/19 07:56:42;;;;;;;25.35;17.00;;;;;;;;;;5029404;28;20099;-77
2022/01/19 07:59:07;;;;;;;23.88;13.05;;;;;;;;;;5029345;28;20021;-77
2022/01/19 08:01:33;;;;;;;15.13;9.93;;;;;;;;;;5029738;28;20079;-77
2022/01/19 08:03:59;;;;;;;12.10;8.45;;;;;;;;;;5028859;28;20041;-76
2022/01/19 08:06:25;;;;;;;11.88;8.73;;;;;;;;;;5028976;28;20029;-77
2022/01/19 08:08:50;;;;;;;11.32;7.63;;;;;;;;;;5032772;28;20348;-77
2022/01/19 08:11:16;;;;;;;10.07;7.95;;;;;;;;;;5028462;28;20040;-76
2022/01/19 08:13:42;;;;;;;12.55;8.50;;;;;;;;;;5028081;28;20434;-77
2022/01/19 08:16:07;;;;;;;13.45;8.18;;;;;;;;;;5029034;28;20033;-77
2022/01/19 08:18:32;;;;;;;11.27;7.75;;;;;;;;;;5028709;28;20033;-77
2022/01/19 08:20:58;;;;;;;11.02;7.40;;;;;;;;;;5029114;28;20022;-77
2022/01/19 08:23:23;;;;;;;11.55;7.45;;;;;;;;;;5028782;28;20030;-77
2022/01/19 08:25:48;;;;;;;10.80;7.55;;;;;;;;;;5029013;28;20045;-77
2022/01/19 08:28:14;;;;;;;13.45;7.32;;;;;;;;;;5029136;28;20552;-77
2022/01/19 08:30:39;;;;;;;12.00;7.80;;;;;;;;;;5030253;28;20025;-77
2022/01/19 08:33:04;;;;;;;14.60;8.18;;;;;;;;;;5030823;28;20018;-78
2022/01/19 08:35:30;;;;;;;14.02;8.80;;;;;;;;;;5028606;28;20403;-78
2022/01/19 08:37:55;;;;;;;12.82;8.60;;;;;;;;;;5042036;28;20020;-77
2022/01/19 08:40:26;;;;;;;19.02;8.93;;;;;;;;;;5041464;28;20025;-75
2022/01/19 08:42:52;;;;;;;9.82;5.93;;;;;;;;;;5020984;28;20038;-77
2022/01/19 08:45:17;;;;;;;8.65;6.03;;;;;;;;;;5025871;28;20025;-78
2022/01/19 08:47:42;;;;;;;9.55;6.28;;;;;;;;;;5025950;28;20088;-76
2022/01/19 08:50:10;;;;;;;10.07;6.90;;;;;;;;;;5026257;28;20059;-77
2022/01/19 08:52:36;;;;;;;9.55;6.55;;;;;;;;;;5025998;28;20030;-77
2022/01/19 08:55:03;;;;;;;8.77;5.82;;;;;;;;;;5037779;28;20483;-78
2022/01/19 08:57:28;;;;;;;9.15;6.20;;;;;;;;;;5043422;28;20044;-77
2022/01/19 08:59:54;;;;;;;7.70;4.72;;;;;;;;;;5031433;28;20453;-77
2022/01/19 09:02:19;;;;;;;10.52;5.55;;;;;;;;;;5031079;28;20503;-77
2022/01/19 09:04:45;;;;;;;11.13;5.80;;;;;;;;;;5011796;28;20040;-76
2022/01/19 09:07:11;;;;;;;10.00;5.90;;;;;;;;;;5017547;28;20076;-76
2022/01/19 09:09:36;;;;;;;9.82;5.15;;;;;;;;;;5031483;28;20049;-76
2022/01/19 09:12:02;;;;;;;8.10;5.57;;;;;;;;;;5031600;28;20108;-77
2022/01/19 09:14:28;;;;;;;8.63;5.55;;;;;;;;;;5030487;28;20029;-76
2022/01/19 09:16:54;;;;;;;9.93;6.28;;;;;;;;;;5031450;28;20029;-75
2022/01/19 09:19:19;;;;;;;9.45;6.55;;;;;;;;;;5031416;28;20029;-74
2022/01/19 09:21:47;;;;;;;12.23;7.00;;;;;;;;;;5030902;28;20091;-75
2022/01/19 09:24:12;;;;;;;12.10;6.78;;;;;;;;;;5015778;28;20034;-75
2022/01/19 09:26:38;;;;;;;12.02;8.07;;;;;;;;;;5021169;28;20078;-76
2022/01/19 09:29:04;;;;;;;13.10;8.63;;;;;;;;;;5030904;28;20033;-77
2022/01/19 09:31:29;;;;;;;10.13;6.45;;;;;;;;;;5030901;28;20118;-74
2022/01/19 09:34:05;;;;;;;15.25;9.40;;;;;;;;;;5018679;28;20072;-77
2022/01/19 09:36:34;;;;;;;13.70;7.28;;;;;;;;;;5027572;28;20391;-76
2022/01/19 09:39:00;;;;;;;13.43;8.25;;;;;;;;;;5032527;28;20479;-76
2022/01/19 09:41:26;;;;;;;21.98;11.32;;;;;;;;;;5032494;28;20021;-75
2022/01/19 09:43:51;;;;;;;15.60;8.60;;;;;;;;;;5020682;28;20349;-76
2022/01/19 09:46:17;;;;;;;21.67;9.23;;;;;;;;;;5031026;28;20021;-76
2022/01/19 09:48:43;;;;;;;15.90;8.88;;;;;;;;;;5031862;28;20538;-76
2022/01/19 09:51:09;;;;;;;13.57;8.38;;;;;;;;;;5031135;28;20057;-76
2022/01/19 09:53:34;;;;;;;18.60;12.00;;;;;;;;;;5021458;28;20030;-76
2022/01/19 09:55:59;;;;;;;16.77;10.18;;;;;;;;;;5010830;28;20025;-76
2022/01/19 09:58:25;;;;;;;75.50;32.22;;;;;;;;;;5011048;28;20363;-76
2022/01/19 10:00:51;;;;;;;34.33;17.27;;;;;;;;;;5029626;28;20036;-77
2022/01/19 10:03:18;;;;;;;17.95;10.25;;;;;;;;;;5029401;28;20076;-77
2022/01/19 10:06:08;;;;;;;19.05;10.82;;;;;;;;;;5029481;28;20041;-76
2022/01/19 10:08:36;;;;;;;17.52;10.20;;;;;;;;;;5008131;28;20416;-76
2022/01/19 10:11:06;;;;;;;19.48;10.18;;;;;;;;;;5010547;28;20552;-77
2022/01/19 10:19:22;;;;;;;18.38;10.32;;;;;;;;;;5030614;28;20423;-77
2022/01/19 10:22:00;;;;;;;20.02;10.63;;;;;;;;;;5029984;28;20028;-77
2022/01/19 10:25:03;;;;;;;18.25;10.45;;;;;;;;;;5030191;28;20033;-76
2022/01/19 10:27:43;;;;;;;22.15;11.55;;;;;;;;;;5027095;28;20037;-77
2022/01/19 10:30:08;;;;;;;18.45;10.35;;;;;;;;;;5017508;28;20089;-76
2022/01/19 10:32:52;;;;;;;22.42;11.10;;;;;;;;;;5011566;28;20033;-77
2022/01/19 10:35:33;;;;;;;24.02;12.25;;;;;;;;;;5010552;28;20395;-77
2022/01/19 10:38:13;;;;;;;23.42;11.93;;;;;;;;;;5044965;28;20082;-76
2022/01/19 10:40:41;;;;;;;29.00;13.35;;;;;;;;;;5009946;28;20025;-76
2022/01/19 10:43:27;;;;;;;28.58;12.52;;;;;;;;;;5011771;28;20045;-77
2022/01/19 10:45:54;;;;;;;27.02;13.18;;;;;;;;;;5028530;28;20120;-77
2022/01/19 10:48:37;;;;;;;26.60;12.80;;;;;;;;;;5022485;28;20484;-78
2022/01/19 10:51:09;;;;;;;24.13;11.55;;;;;;;;;;5029503;28;20461;-76
2022/01/19 10:53:35;;;;;;;28.05;12.40;;;;;;;;;;5027907;28;20025;-76
2022/01/19 10:56:05;;;;;;;25.88;12.07;;;;;;;;;;5014206;28;20150;-77
2022/01/19 10:58:31;;;;;;;27.38;11.73;;;;;;;;;;5017079;28;20359;-77
2022/01/19 11:00:56;;;;;;;27.15;12.70;;;;;;;;;;5029332;28;20025;-76
2022/01/19 11:03:25;;;;;;;29.58;13.20;;;;;;;;;;5025309;28;20124;-76
2022/01/19 11:05:55;;;;;;;26.10;12.27;;;;;;;;;;5031411;28;20064;-77
2022/01/19 11:08:23;;;;;;;29.83;12.90;;;;;;;;;;5034430;28;20371;-77
2022/01/19 11:10:52;;;;;;;27.63;12.70;;;;;;;;;;5022787;28;20029;-78
2022/01/19 11:13:33;;;;;;;31.38;13.75;;;;;;;;;;5026033;28;20037;-78
2022/01/19 11:16:02;;;;;;;27.90;11.77;;;;;;;;;;5029093;28;20468;-76
2022/01/19 11:18:29;;;;;;;28.08;12.23;;;;;;;;;;5029984;28;20028;-78
2022/01/19 11:20:56;;;;;;;26.92;11.65;;;;;;;;;;5022243;28;20045;-79
2022/01/19 11:23:33;;;;;;;26.38;12.57;;;;;;;;;;5009816;28;20476;-78
2022/01/19 11:26:09;;;;;;;27.40;12.00;;;;;;;;;;5029082;28;20441;-78
2022/01/19 11:28:38;;;;;;;26.92;12.75;;;;;;;;;;5019987;28;20078;-78
2022/01/19 11:31:10;;;;;;;20.17;10.18;;;;;;;;;;5028717;28;20040;-76
2022/01/19 11:33:41;;;;;;;17.83;8.65;;;;;;;;;;5022222;28;20029;-77
2022/01/19 11:36:22;;;;;;;20.77;10.40;;;;;;;;;;5029317;28;20033;-77
2022/01/19 11:39:02;;;;;;;27.23;11.52;;;;;;;;;;5023620;28;20075;-78
2022/01/19 11:41:41;;;;;;;25.73;10.93;;;;;;;;;;5027599;28;20055;-76
2022/01/19 11:44:11;;;;;;;25.15;11.38;;;;;;;;;;5028175;28;20056;-78
2022/01/19 11:46:58;;;;;;;21.80;11.00;;;;;;;;;;5018413;28;20125;-77
2022/01/19 11:49:51;;;;;;;23.75;10.00;;;;;;;;;;5024050;28;20330;-77
2022/01/19 11:52:22;;;;;;;22.17;10.38;;;;;;;;;;5025787;28;20460;-74
2022/01/19 11:54:50;;;;;;;21.58;10.10;;;;;;;;;;5027573;28;20017;-77
2022/01/19 11:57:28;;;;;;;24.58;11.15;;;;;;;;;;5019252;28;20458;-77
2022/01/19 11:59:55;;;;;;;16.17;8.60;;;;;;;;;;5029174;28;20052;-78
2022/01/19 12:02:20;;;;;;;21.88;9.32;;;;;;;;;;5028152;28;20025;-78
2022/01/19 12:04:46;;;;;;;27.65;9.13;;;;;;;;;;5019502;28;20396;-76
2022/01/19 12:07:34;;;;;;;21.23;9.68;;;;;;;;;;5026747;28;20076;-78
2022/01/19 12:09:59;;;;;;;22.85;10.55;;;;;;;;;;5018601;28;20537;-77
2022/01/19 12:12:28;;;;;;;22.98;10.57;;;;;;;;;;5007625;28;20121;-77
2022/01/19 12:14:54;;;;;;;20.70;10.40;;;;;;;;;;5017536;28;20026;-78
2022/01/19 12:17:26;;;;;;;20.60;10.65;;;;;;;;;;5029140;28;20036;-78
2022/01/19 12:19:52;;;;;;;25.85;12.80;;;;;;;;;;5029293;28;20030;-78
2022/01/19 12:22:23;;;;;;;20.63;9.88;;;;;;;;;;5028720;28;20036;-78
2022/01/19 12:25:00;;;;;;;23.73;10.68;;;;;;;;;;5028739;28;20022;-78
2022/01/19 12:27:32;;;;;;;18.00;9.45;;;;;;;;;;5025147;28;20132;-74
2022/01/19 12:30:03;;;;;;;19.55;9.98;;;;;;;;;;5031616;28;20036;-78
2022/01/19 12:32:28;;;;;;;26.27;11.90;;;;;;;;;;5012633;28;20026;-75
2022/01/19 12:35:07;;;;;;;18.80;9.25;;;;;;;;;;5012428;28;20527;-76
2022/01/19 12:37:32;;;;;;;21.02;10.07;;;;;;;;;;5012825;28;20022;-76
2022/01/19 12:39:59;;;;;;;20.73;10.52;;;;;;;;;;5013207;28;20091;-76
2022/01/19 12:42:30;;;;;;;18.00;9.15;;;;;;;;;;5015831;28;20479;-78
2022/01/19 12:44:57;;;;;;;20.77;9.98;;;;;;;;;;5032111;28;20061;-77
2022/01/19 12:47:28;;;;;;;26.45;13.90;;;;;;;;;;5032546;28;20031;-78
2022/01/19 12:49:58;;;;;;;20.90;10.57;;;;;;;;;;5028816;28;20349;-76
2022/01/19 12:52:28;;;;;;;21.05;10.52;;;;;;;;;;5028389;28;20120;-79
2022/01/19 12:54:55;;;;;;;19.83;8.73;;;;;;;;;;5029133;28;20562;-77
2022/01/19 12:57:21;;;;;;;19.10;9.05;;;;;;;;;;5027923;28;20063;-78
2022/01/19 12:59:49;;;;;;;18.45;10.05;;;;;;;;;;5025844;28;20419;-76
2022/01/19 13:02:17;;;;;;;16.65;9.15;;;;;;;;;;5025097;28;20419;-78
2022/01/19 13:04:47;;;;;;;19.77;10.65;;;;;;;;;;5027928;28;20081;-75
2022/01/19 13:07:20;;;;;;;17.65;9.70;;;;;;;;;;5027797;28;20747;-76
2022/01/19 13:10:27;;;;;;;19.23;9.93;;;;;;;;;;5027658;28;20083;-75
2022/01/19 13:13:09;;;;;;;18.80;9.45;;;;;;;;;;5025287;28;20025;-80
2022/01/19 13:15:53;;;;;;;21.27;11.23;;;;;;;;;;5019029;28;20032;-77
2022/01/19 13:18:28;;;;;;;24.52;10.40;;;;;;;;;;5027677;28;20029;-77
2022/01/19 13:20:55;;;;;;;17.50;9.20;;;;;;;;;;5028060;28;20265;-79
2022/01/19 13:23:21;;;;;;;22.15;9.95;;;;;;;;;;5027535;28;20033;-78
2022/01/19 13:26:05;;;;;;;20.30;10.32;;;;;;;;;;5029002;28;20025;-77
2022/01/19 13:28:33;;;;;;;19.85;9.95;;;;;;;;;;5027872;28;20670;-79
2022/01/19 13:31:14;;;;;;;26.00;11.98;;;;;;;;;;5026935;28;20079;-77
2022/01/19 13:33:41;;;;;;;27.52;13.75;;;;;;;;;;5026807;28;20495;-78
2022/01/19 13:36:07;;;;;;;21.05;9.85;;;;;;;;;;5027976;28;20419;-77
2022/01/19 13:38:33;;;;;;;24.58;11.23;;;;;;;;;;5027641;28;20069;-78
2022/01/19 13:41:07;;;;;;;26.02;11.73;;;;;;;;;;5025051;28;20443;-77
2022/01/19 13:43:35;;;;;;;23.67;11.98;;;;;;;;;;5026030;28;20052;-78
2022/01/19 13:46:13;;;;;;;24.48;11.32;;;;;;;;;;5027057;28;20086;-77
2022/01/19 13:48:40;;;;;;;22.92;10.52;;;;;;;;;;5010179;28;20025;-78
2022/01/19 13:51:10;;;;;;;19.85;11.68;;;;;;;;;;5027502;28;20037;-79
2022/01/19 13:53:41;;;;;;;22.35;11.85;;;;;;;;;;5027346;28;20483;-79
2022/01/19 13:56:14;;;;;;;21.85;9.73;;;;;;;;;;5026695;28;20337;-77
2022/01/19 13:58:45;;;;;;;23.35;11.23;;;;;;;;;;5029915;28;20045;-79
2022/01/19 14:01:15;;;;;;;25.00;10.48;;;;;;;;;;5032526;28;20116;-77
2022/01/19 14:04:00;;;;;;;24.88;11.05;;;;;;;;;;5018036;28;20286;-78
2022/01/19 14:06:37;;;;;;;17.88;9.07;;;;;;;;;;5020140;28;20079;-79
2022/01/19 14:09:14;;;;;;;23.35;10.07;;;;;;;;;;5030109;28;20079;-78
2022/01/19 14:11:42;;;;;;;25.77;10.73;;;;;;;;;;5030548;28;20029;-79
2022/01/19 14:14:14;;;;;;;24.50;10.75;;;;;;;;;;5015637;28;20032;-79
2022/01/19 14:16:46;;;;;;;22.77;11.25;;;;;;;;;;5015998;28;20021;-77
2022/01/19 14:19:20;;;;;;;26.37;11.47;;;;;;;;;;5029766;28;20041;-75
2022/01/19 14:22:32;;;;;;;23.17;9.98;;;;;;;;;;5026704;28;20029;-77
2022/01/19 14:25:01;;;;;;;29.55;10.77;;;;;;;;;;4970760;28;20121;-78
2022/01/19 14:27:26;;;;;;;25.45;10.98;;;;;;;;;;5038487;28;20511;-79
2022/01/19 14:30:06;;;;;;;23.58;10.55;;;;;;;;;;5050326;28;20176;-78
2022/01/19 14:32:51;;;;;;;23.42;9.65;;;;;;;;;;5036239;28;20025;-77
2022/01/19 14:35:22;;;;;;;26.13;10.40;;;;;;;;;;5030349;28;20017;-77
2022/01/19 14:38:05;;;;;;;28.35;14.88;;;;;;;;;;5032063;28;20057;-78
2022/01/19 14:40:34;;;;;;;27.80;11.80;;;;;;;;;;5033849;28;20034;-78
2022/01/19 14:43:00;;;;;;;27.65;11.80;;;;;;;;;;5023093;28;20501;-77
2022/01/19 14:45:35;;;;;;;28.65;13.00;;;;;;;;;;5027920;28;20090;-78
2022/01/19 14:48:11;;;;;;;23.30;11.48;;;;;;;;;;5030770;28;20033;-77
2022/01/19 14:50:37;;;;;;;26.10;11.55;;;;;;;;;;5034194;28;20076;-79
2022/01/19 14:53:04;;;;;;;25.15;11.35;;;;;;;;;;5034142;28;20021;-78
2022/01/19 14:55:32;;;;;;;24.10;12.35;;;;;;;;;;5035530;28;20021;-79
2022/01/19 14:58:01;;;;;;;24.27;11.32;;;;;;;;;;5032274;28;20108;-79
2022/01/19 15:00:29;;;;;;;23.73;10.75;;;;;;;;;;5036624;28;20028;-78
2022/01/19 15:03:02;;;;;;;25.65;11.10;;;;;;;;;;5031931;28;20168;-77
2022/01/19 15:05:40;;;;;;;24.48;11.60;;;;;;;;;;5010132;28;20431;-79
2022/01/19 15:08:07;;;;;;;26.50;10.90;;;;;;;;;;5009435;28;20033;-78
2022/01/19 15:10:35;;;;;;;21.70;11.05;;;;;;;;;;5010772;28;20086;-79
2022/01/19 15:13:03;;;;;;;23.63;10.98;;;;;;;;;;5026637;28;20036;-77
2022/01/19 15:15:30;;;;;;;24.70;11.77;;;;;;;;;;5029874;28;20025;-77
2022/01/19 15:17:58;;;;;;;23.17;10.88;;;;;;;;;;5027841;28;20029;-77
2022/01/19 15:20:24;;;;;;;22.50;11.35;;;;;;;;;;5029053;28;20206;-78
2022/01/19 15:22:51;;;;;;;28.90;13.77;;;;;;;;;;5028418;28;20095;-78
2022/01/19 15:25:17;;;;;;;24.75;12.20;;;;;;;;;;5029017;28;20022;-78
2022/01/19 15:27:44;;;;;;;24.50;11.77;;;;;;;;;;5028359;28;20025;-78
2022/01/19 15:30:10;;;;;;;22.58;11.57;;;;;;;;;;5030401;28;20074;-77
2022/01/19 15:32:35;;;;;;;23.92;11.05;;;;;;;;;;5030079;28;20029;-78
2022/01/19 15:35:01;;;;;;;21.33;10.68;;;;;;;;;;5028273;28;20088;-77
2022/01/19 15:37:27;;;;;;;24.35;12.43;;;;;;;;;;5024204;28;20249;-76
2022/01/19 15:39:54;;;;;;;24.83;11.57;;;;;;;;;;5025207;28;20071;-77
2022/01/19 15:42:20;;;;;;;25.40;12.95;;;;;;;;;;5025938;28;20025;-78
2022/01/19 15:44:46;;;;;;;27.50;11.98;;;;;;;;;;5028392;28;20537;-78
2022/01/19 15:47:13;;;;;;;28.13;12.07;;;;;;;;;;5031982;28;20083;-79
2022/01/19 15:49:38;;;;;;;21.95;10.65;;;;;;;;;;5030316;28;20472;-75
2022/01/19 15:52:05;;;;;;;26.45;12.45;;;;;;;;;;5029717;28;20048;-76